< < Back
Terminal Aerodrome Forecast


Current Version              Previous Versions:   1  2  3  4  5  6  7  8  9  

Terminal Aerodrome Forecast

523
FTUS42 KGSP 200528
TAFHKY
TAF
KHKY 200528Z 2006/2106 07005KT P6SM OVC250
     FM201200 04005KT P6SM -RA OVC045
     FM201900 06003KT P6SM -RA OVC035
     FM210400 00000KT P6SM SCT045=



Latest METAR

496
SAUS70 KWBC 201700 RRC
MTRHKY
METAR KHKY 201653Z AUTO 00000KT 10SM BKN025 OVC033 05/M01 A3024 RMK AO2
RAB00E19 SLP232 P0000 T00501011


USA.gov is the U.S. government's official web portal to all federal, state and local government web resources and services.